Walland, TN (37886)

10:12 AM EST on February 12, 2016 (GMT -0500)
Jules Treehouse - Townsend | | Change Station
CLOSE
Current Station
Personal Weather Station
Location: Townsend, TN
Elevation: 1040 ft
Nearby Weather Stations
Active Advisory: Winter Weather Advisory Active Notice: Local Storm Report

Elev 1040 ft 35.70 °N, 83.80 °W | Updated 5 minutes ago

Snow
Snow
32.4 °F
Feels Like 32 °F
N
0.0
Wind Variable Wind from East
Gusts 0.0 mph

Today
High -- | Low -- °F
--% Chance of Precip.
Yesterday
High -- | Low -- °F
Precip. -- in
Pressure 30.14 in
Visibility 1.5 miles
Clouds Scattered Clouds 1100 ft
Scattered Clouds 2100 ft
Overcast 5000 ft
Windchill 32 °F
Dew Point 31 °F
Humidity 94%
Rainfall 0.00 in
Snow Depth Not available.
7:25 AM 6:13 PM
Waxing Crescent, 21% visible
SPECI KTYS 121508Z 21003KT 1 1/2SM BR SCT011 SCT021 OVC050 M02/M02 A3014 RMK AO2 SNE06 P0001 T10171022
Pressure 30.14 in
Visibility 1.5 miles
Clouds Scattered Clouds 1100 ft
Scattered Clouds 2100 ft
Overcast 5000 ft
Windchill 32 °F
Dew Point 31 °F
Humidity 94%
Rainfall 0.00 in
Snow Depth Not available.
7:25 AM 6:13 PM
Waxing Crescent, 21% visible
SPECI KTYS 121508Z 21003KT 1 1/2SM BR SCT011 SCT021 OVC050 M02/M02 A3014 RMK AO2 SNE06 P0001 T10171022

10-Day Weather Forecast

Almanac

Astronomy

Feb. 12, 2016 Rise Set
Actual Time
Civil Twilight
Nautical Twilight
Astronomical Twilight
Moon
Length of Visible Light
Length of Day
Tomorrow will be .
, % of the Moon is Illuminated

Today's Extremes

State Highs State Lows

Community

WunderPhotos

Upload Photos

1,892,325 photos uploaded!

WunderBlog® & News

Nearby

Air Quality

  Air Quality AQ Index Pollutant
Not available.

Snow Depth

Station Depth Elevation

Earthquake Activity

City Distance Mag. Time & Date
Minimum magnitude displayed is 2.5.

Coastal Water Temperatures

Place Temperature

Stations

Nearby Weather Stations

Station Location Temp. Windchill Dew Point Humidity Wind Precip. Elev Updated Type
                   

Watches & Warnings

Winter Weather Advisory
Issued: 8:10 AM EST Feb. 12, 2016 – National Weather Service

... Winter Weather Advisory in effect until 4 PM EST this
afternoon...

The National Weather Service in Morristown has issued a Winter
Weather Advisory for snow... which is in effect until 4 PM EST this
afternoon.

* Event... snow accumulations up to 1 inches are expected.

* Timing... snow will continue falling morning then will taper off
this afternoon.

* Impacts... the snow may lead to hazardous Road conditions
especially on untreated roadways.

Precautionary/preparedness actions...

Travel will likely become hazardous once the wintry precipitation
begins. Motorists need to be especially careful on bridges and
overpasses where slippery spots often develop first.